Time;durP1;ratioP1;P1;durP2;ratioP2;P2;SDS_P1;SDS_P2;PMS_P1;PMS_P2;Temp;Humidity;BMP_temperature;BMP_pressure;BME280_temperature;BME280_humidity;BME280_pressure;Samples;Min_cycle;Max_cycle;Signal;HPM_P1;HPM_P2
2021/08/10 00:00:56;;;;;;;7.50;5.63;;;24.10;99.90;;;;;;6186814;23;20524;-66
2021/08/10 00:03:22;;;;;;;5.87;5.10;;;24.00;99.90;;;;;;6186661;23;20176;-66
2021/08/10 00:05:48;;;;;;;7.23;5.70;;;24.00;99.90;;;;;;6186803;23;20159;-66
2021/08/10 00:08:18;;;;;;;5.27;4.77;;;24.00;99.90;;;;;;6186785;23;20182;-67
2021/08/10 00:10:45;;;;;;;6.77;5.40;;;24.00;99.90;;;;;;6186835;23;20492;-65
2021/08/10 00:13:15;;;;;;;5.67;4.70;;;23.90;99.90;;;;;;6160225;23;20413;-65
2021/08/10 00:15:42;;;;;;;4.67;4.30;;;23.90;99.90;;;;;;6187122;23;20421;-66
2021/08/10 00:18:08;;;;;;;5.60;4.87;;;23.90;99.90;;;;;;6185000;23;20418;-65
2021/08/10 00:20:34;;;;;;;4.97;4.57;;;23.90;99.90;;;;;;6186622;23;20384;-67
2021/08/10 00:23:00;;;;;;;5.33;4.83;;;23.80;99.90;;;;;;6186638;23;20859;-65
2021/08/10 00:25:27;;;;;;;5.37;4.87;;;23.80;99.90;;;;;;6160197;23;20384;-67
2021/08/10 00:27:53;;;;;;;5.00;4.60;;;23.80;99.90;;;;;;6186706;23;20400;-65
2021/08/10 00:30:19;;;;;;;4.63;4.03;;;23.70;99.90;;;;;;6186409;23;20454;-66
2021/08/10 00:32:45;;;;;;;5.20;4.60;;;23.70;99.90;;;;;;6186507;23;20490;-66
2021/08/10 00:35:10;;;;;;;5.83;4.90;;;23.70;99.90;;;;;;6186446;23;20372;-66
2021/08/10 00:37:36;;;;;;;5.90;4.60;;;23.70;99.90;;;;;;6186194;23;20195;-65
2021/08/10 00:40:02;;;;;;;4.73;4.30;;;23.70;99.90;;;;;;6186393;23;20154;-67
2021/08/10 00:42:28;;;;;;;6.03;4.90;;;23.70;99.90;;;;;;6184709;23;20195;-65
2021/08/10 00:44:54;;;;;;;5.10;4.60;;;23.70;99.90;;;;;;6186379;23;20838;-66
2021/08/10 00:47:19;;;;;;;4.87;4.47;;;23.70;99.90;;;;;;6159793;23;20174;-66
2021/08/10 00:49:45;;;;;;;4.47;4.07;;;23.60;99.90;;;;;;6186222;23;20201;-66
2021/08/10 00:52:11;;;;;;;5.10;4.13;;;23.60;99.90;;;;;;6186210;23;20171;-66
2021/08/10 00:54:36;;;;;;;4.93;4.43;;;23.60;99.90;;;;;;6160191;23;20455;-65
2021/08/10 00:57:02;;;;;;;4.67;4.27;;;23.60;99.90;;;;;;6186177;23;20399;-65
2021/08/10 00:59:28;;;;;;;5.13;4.63;;;23.50;99.90;;;;;;6186893;23;20159;-65
2021/08/10 01:01:54;;;;;;;4.97;4.20;;;23.50;99.90;;;;;;6159932;23;20232;-66
2021/08/10 01:04:19;;;;;;;4.60;4.20;;;23.50;99.90;;;;;;6186862;23;20170;-66
2021/08/10 01:07:13;;;;;;;5.30;4.53;;;23.50;99.90;;;;;;6186238;23;20177;-65
2021/08/10 01:10:04;;;;;;;4.93;4.53;;;23.50;99.90;;;;;;6160135;23;20197;-65
2021/08/10 01:12:46;;;;;;;7.60;4.63;;;23.50;99.90;;;;;;6186236;23;21070;-66
2021/08/10 01:15:17;;;;;;;7.40;4.30;;;23.50;99.90;;;;;;6186311;23;20381;-67
2021/08/10 01:17:57;;;;;;;5.30;4.87;;;23.40;99.90;;;;;;6186325;23;20405;-67
2021/08/10 01:21:00;;;;;;;5.07;4.37;;;23.40;99.90;;;;;;6186292;23;20369;-67
2021/08/10 01:23:29;;;;;;;6.53;5.17;;;23.40;99.90;;;;;;6186443;23;20408;-66
2021/08/10 01:25:59;;;;;;;6.07;4.93;;;23.40;99.90;;;;;;6186184;23;20423;-65
2021/08/10 01:28:49;;;;;;;5.00;4.50;;;23.30;99.90;;;;;;6186226;23;20763;-65
2021/08/10 01:31:22;;;;;;;5.87;5.27;;;23.30;99.90;;;;;;6186163;23;20373;-65
2021/08/10 01:33:54;;;;;;;6.63;4.90;;;23.30;99.90;;;;;;6186582;23;20395;-67
2021/08/10 01:36:21;;;;;;;5.10;4.60;;;23.30;99.90;;;;;;6186006;23;20364;-65
2021/08/10 01:38:52;;;;;;;4.97;4.47;;;23.20;99.90;;;;;;6160039;23;20396;-65
2021/08/10 01:41:19;;;;;;;4.73;4.30;;;23.20;99.90;;;;;;6186065;23;20444;-65
2021/08/10 01:43:47;;;;;;;5.90;5.10;;;23.20;99.90;;;;;;6186472;23;20446;-66
2021/08/10 01:46:13;;;;;;;4.27;3.73;;;23.10;99.90;;;;;;6185910;23;20372;-65
2021/08/10 01:48:39;;;;;;;7.30;4.83;;;23.10;99.90;;;;;;6186246;23;20885;-66
2021/08/10 01:51:06;;;;;;;4.77;3.97;;;23.10;99.90;;;;;;6184384;23;20459;-66
2021/08/10 01:53:33;;;;;;;4.70;4.20;;;23.10;99.90;;;;;;6186235;23;20444;-65
2021/08/10 01:55:59;;;;;;;4.97;4.40;;;23.10;99.90;;;;;;6184438;23;20384;-65
2021/08/10 01:58:29;;;;;;;13.40;5.40;;;23.10;99.90;;;;;;6186281;23;20443;-65
2021/08/10 02:00:57;;;;;;;5.90;5.30;;;23.00;99.90;;;;;;6184509;23;20949;-65
2021/08/10 02:03:25;;;;;;;5.80;4.80;;;23.10;99.90;;;;;;6184498;23;20419;-65
2021/08/10 02:05:51;;;;;;;6.90;4.90;;;23.10;99.90;;;;;;6186004;23;20375;-67
2021/08/10 02:08:18;;;;;;;7.20;4.87;;;23.00;99.90;;;;;;6159440;23;20447;-65
2021/08/10 02:10:45;;;;;;;6.33;4.77;;;23.00;99.90;;;;;;6186033;23;20380;-65
2021/08/10 02:13:12;;;;;;;5.20;4.70;;;23.00;99.90;;;;;;6187567;23;20824;-65
2021/08/10 02:15:44;;;;;;;6.60;5.20;;;23.00;99.90;;;;;;6187754;23;20373;-66
2021/08/10 02:18:10;;;;;;;5.13;4.60;;;23.00;99.90;;;;;;6161471;23;20444;-65
2021/08/10 02:20:37;;;;;;;5.40;4.37;;;22.90;99.90;;;;;;6187744;23;20372;-65
2021/08/10 02:23:05;;;;;;;5.73;5.10;;;22.90;99.90;;;;;;6187472;23;20407;-66
2021/08/10 02:25:32;;;;;;;6.43;5.17;;;22.90;99.90;;;;;;6161314;23;20395;-65
2021/08/10 02:28:01;;;;;;;5.83;4.87;;;22.90;99.90;;;;;;6187702;23;20565;-64
2021/08/10 02:30:29;;;;;;;4.83;4.40;;;22.80;99.90;;;;;;6187608;23;20428;-66
2021/08/10 02:32:55;;;;;;;4.43;4.03;;;22.80;99.90;;;;;;6187698;23;20400;-65
2021/08/10 02:35:24;;;;;;;5.73;5.13;;;22.80;99.90;;;;;;6187626;23;20380;-67
2021/08/10 02:37:51;;;;;;;4.70;4.30;;;22.70;99.90;;;;;;6187296;23;20473;-65
2021/08/10 02:40:20;;;;;;;6.30;4.83;;;22.70;99.90;;;;;;6187577;23;20771;-67
2021/08/10 02:42:52;;;;;;;6.00;4.87;;;22.70;99.90;;;;;;6187510;23;20404;-66
2021/08/10 02:45:18;;;;;;;5.70;4.60;;;22.70;99.90;;;;;;6187718;23;20419;-65
2021/08/10 02:47:52;;;;;;;7.37;5.03;;;22.70;99.90;;;;;;6187288;23;20870;-65
2021/08/10 02:50:19;;;;;;;5.60;4.93;;;22.70;99.90;;;;;;6187362;23;20428;-65
2021/08/10 02:52:45;;;;;;;6.63;5.73;;;22.60;99.90;;;;;;6187323;23;20470;-65
2021/08/10 02:55:11;;;;;;;5.83;4.87;;;22.60;99.90;;;;;;6187486;23;20377;-67
2021/08/10 02:57:55;;;;;;;5.83;4.67;;;22.60;99.90;;;;;;6187409;23;20175;-65
2021/08/10 03:00:22;;;;;;;5.70;4.90;;;22.60;99.90;;;;;;6187424;23;20371;-67
2021/08/10 03:02:52;;;;;;;5.73;5.13;;;22.60;99.90;;;;;;6187333;23;20404;-66
2021/08/10 03:05:21;;;;;;;5.70;5.20;;;22.60;99.90;;;;;;6187320;23;20456;-67
2021/08/10 03:07:52;;;;;;;7.73;5.77;;;22.60;99.90;;;;;;6160924;23;20882;-66
2021/08/10 03:10:19;;;;;;;5.77;5.20;;;22.60;99.90;;;;;;6185653;23;20944;-66
2021/08/10 03:12:49;;;;;;;6.30;4.90;;;22.60;99.90;;;;;;6187067;23;20404;-65
2021/08/10 03:15:17;;;;;;;6.50;5.33;;;22.60;99.90;;;;;;6187356;23;20382;-65
2021/08/10 03:17:44;;;;;;;6.80;5.73;;;22.60;99.90;;;;;;6187176;23;20463;-65
2021/08/10 03:20:10;;;;;;;8.77;6.60;;;22.60;99.90;;;;;;6187149;23;20408;-66
2021/08/10 03:22:37;;;;;;;6.20;5.47;;;22.60;99.90;;;;;;6187083;23;20392;-65
2021/08/10 03:25:05;;;;;;;6.13;5.53;;;22.50;99.90;;;;;;6187109;23;20373;-65
2021/08/10 03:27:33;;;;;;;6.03;5.43;;;22.50;99.90;;;;;;6187060;23;20699;-65
2021/08/10 03:30:01;;;;;;;7.70;6.33;;;22.50;99.90;;;;;;6186682;23;20428;-66
2021/08/10 03:32:26;;;;;;;5.90;5.40;;;22.50;99.90;;;;;;6185357;23;20711;-65
2021/08/10 03:34:52;;;;;;;7.60;5.83;;;22.50;99.90;;;;;;6187149;23;20448;-66
2021/08/10 03:37:20;;;;;;;6.83;5.40;;;22.50;99.90;;;;;;6186579;23;20198;-65
2021/08/10 03:39:46;;;;;;;7.43;6.40;;;22.50;99.90;;;;;;6187083;23;20376;-65
2021/08/10 03:42:13;;;;;;;7.30;6.57;;;22.40;99.90;;;;;;6185252;23;20781;-67
2021/08/10 03:44:42;;;;;;;7.27;6.57;;;22.40;99.90;;;;;;6187540;23;20585;-65
2021/08/10 03:47:14;;;;;;;6.90;6.20;;;22.40;99.90;;;;;;6186845;23;20384;-65
2021/08/10 03:49:41;;;;;;;8.33;6.33;;;22.40;99.90;;;;;;6187059;23;20443;-66
2021/08/10 03:52:10;;;;;;;8.00;6.23;;;22.40;99.90;;;;;;6185814;23;20439;-65
2021/08/10 03:54:36;;;;;;;6.70;5.90;;;22.40;99.90;;;;;;6184311;23;21049;-65
2021/08/10 03:57:03;;;;;;;7.60;6.37;;;22.40;99.90;;;;;;6157760;23;20491;-65
2021/08/10 03:59:31;;;;;;;7.73;6.00;;;22.40;99.90;;;;;;6182912;23;20707;-65
2021/08/10 04:01:56;;;;;;;6.73;6.00;;;22.40;99.90;;;;;;6156756;23;20792;-65
2021/08/10 04:04:24;;;;;;;7.87;6.83;;;22.40;99.90;;;;;;6156809;23;20384;-65
2021/08/10 04:06:50;;;;;;;6.03;5.43;;;22.40;99.90;;;;;;6182853;23;20186;-65
2021/08/10 04:09:16;;;;;;;9.67;6.70;;;22.40;99.90;;;;;;6186747;23;20909;-65
2021/08/10 04:11:42;;;;;;;6.80;6.10;;;22.40;99.90;;;;;;6158770;23;20205;-65
2021/08/10 04:14:08;;;;;;;6.40;5.57;;;22.40;99.90;;;;;;6184040;23;20384;-65
2021/08/10 04:17:04;;;;;;;7.50;5.83;;;22.40;99.90;;;;;;6186017;23;20225;-65
2021/08/10 04:19:31;;;;;;;7.03;6.33;;;22.30;99.90;;;;;;6186243;23;20381;-65
2021/08/10 04:21:58;;;;;;;6.70;5.30;;;22.30;99.90;;;;;;6186315;23;20546;-65
2021/08/10 04:24:24;;;;;;;7.30;5.73;;;22.30;99.90;;;;;;6184448;23;20471;-65
2021/08/10 04:26:50;;;;;;;6.57;5.60;;;22.40;99.90;;;;;;6159665;23;20436;-65
2021/08/10 04:29:15;;;;;;;7.63;6.40;;;22.40;99.90;;;;;;6159811;23;20194;-65
2021/08/10 04:31:42;;;;;;;5.97;5.37;;;22.40;99.90;;;;;;6185780;23;20397;-65
2021/08/10 04:34:08;;;;;;;6.50;5.83;;;22.40;99.90;;;;;;6185959;23;20585;-65
2021/08/10 04:36:33;;;;;;;5.97;5.37;;;22.40;99.90;;;;;;6185958;23;20455;-66
2021/08/10 04:39:00;;;;;;;6.50;5.90;;;22.50;99.90;;;;;;6181952;23;20903;-67
2021/08/10 04:41:26;;;;;;;5.57;5.07;;;22.50;99.90;;;;;;6182235;23;20200;-65
2021/08/10 04:43:52;;;;;;;6.77;6.00;;;22.50;99.90;;;;;;6181975;23;20869;-65
2021/08/10 04:46:19;;;;;;;5.50;5.00;;;22.50;99.90;;;;;;6180842;23;20830;-65
2021/08/10 04:48:45;;;;;;;8.87;6.13;;;22.60;99.90;;;;;;6179785;23;20428;-65
2021/08/10 04:51:13;;;;;;;6.17;5.57;;;22.60;99.90;;;;;;6177797;23;20435;-65
2021/08/10 04:53:38;;;;;;;5.67;5.07;;;22.60;99.90;;;;;;6180656;23;20407;-65
2021/08/10 04:56:04;;;;;;;5.53;5.00;;;22.70;99.90;;;;;;6182139;23;20905;-65
2021/08/10 04:58:31;;;;;;;6.00;5.40;;;22.70;99.90;;;;;;6155029;23;20416;-66
2021/08/10 05:00:56;;;;;;;6.20;5.03;;;22.70;99.90;;;;;;6181399;23;20755;-66
2021/08/10 05:03:22;;;;;;;7.40;5.20;;;22.80;99.90;;;;;;6182864;23;20498;-66
2021/08/10 05:05:48;;;;;;;5.37;4.87;;;22.80;99.90;;;;;;6156799;23;20242;-67
2021/08/10 05:08:15;;;;;;;5.90;5.30;;;22.80;99.90;;;;;;6182348;23;20186;-65
2021/08/10 05:10:42;;;;;;;6.40;5.80;;;22.80;99.90;;;;;;6182237;23;20420;-65
2021/08/10 05:13:08;;;;;;;6.50;5.60;;;22.80;99.90;;;;;;6184338;23;20408;-65
2021/08/10 05:15:35;;;;;;;6.17;5.57;;;22.90;99.90;;;;;;6183944;23;20384;-66
2021/08/10 05:18:00;;;;;;;6.03;5.40;;;22.90;99.90;;;;;;6185977;23;20408;-66
2021/08/10 05:20:26;;;;;;;6.27;4.77;;;22.90;99.90;;;;;;6159574;23;20842;-65
2021/08/10 05:22:51;;;;;;;6.83;5.70;;;22.90;99.90;;;;;;6185680;23;20186;-66
2021/08/10 05:25:17;;;;;;;6.27;5.67;;;23.00;99.90;;;;;;6158582;23;20159;-66
2021/08/10 05:27:42;;;;;;;7.73;5.67;;;23.00;99.90;;;;;;6184800;23;20210;-65
2021/08/10 05:30:09;;;;;;;8.47;6.40;;;23.00;99.90;;;;;;6185401;23;20193;-65
2021/08/10 05:32:34;;;;;;;10.60;6.20;;;23.10;99.90;;;;;;6159397;23;20189;-65
2021/08/10 05:35:00;;;;;;;5.80;5.13;;;23.10;99.90;;;;;;6185634;23;20735;-66
2021/08/10 05:37:25;;;;;;;6.00;5.30;;;23.20;99.90;;;;;;6184857;23;20198;-67
2021/08/10 05:39:51;;;;;;;6.40;5.67;;;23.20;99.90;;;;;;6185330;23;20166;-65
2021/08/10 05:42:16;;;;;;;6.13;5.53;;;23.30;99.90;;;;;;6157980;23;20186;-67
2021/08/10 05:44:42;;;;;;;6.23;5.63;;;23.40;99.90;;;;;;6185355;23;20152;-67
2021/08/10 05:47:08;;;;;;;6.27;5.67;;;23.40;99.90;;;;;;6187252;23;20206;-65
2021/08/10 05:49:33;;;;;;;7.13;6.43;;;23.50;99.90;;;;;;6188025;23;20219;-65
2021/08/10 05:51:59;;;;;;;8.77;5.37;;;23.50;99.90;;;;;;6159778;23;20487;-67
2021/08/10 05:54:24;;;;;;;6.00;5.40;;;23.60;99.90;;;;;;6185772;23;20558;-66
2021/08/10 05:56:50;;;;;;;6.43;4.97;;;23.60;99.90;;;;;;6186851;23;20577;-65
2021/08/10 05:59:16;;;;;;;5.53;5.00;;;23.70;99.90;;;;;;6186595;23;20160;-65
2021/08/10 06:01:41;;;;;;;7.50;6.37;;;23.80;99.90;;;;;;6187549;23;20479;-65
2021/08/10 06:04:07;;;;;;;5.90;5.40;;;23.80;99.90;;;;;;6159625;23;20604;-65
2021/08/10 06:06:34;;;;;;;7.93;6.47;;;23.90;99.90;;;;;;6158029;23;20266;-65
2021/08/10 06:09:04;;;;;;;6.73;5.80;;;23.90;99.90;;;;;;6156852;23;20227;-67
2021/08/10 06:11:29;;;;;;;6.47;5.73;;;24.00;99.90;;;;;;6185487;23;20377;-65
2021/08/10 06:13:55;;;;;;;6.07;5.53;;;24.00;99.90;;;;;;6186248;23;20856;-65
2021/08/10 06:16:21;;;;;;;6.33;5.73;;;24.10;99.90;;;;;;6184963;23;20369;-65
2021/08/10 06:18:47;;;;;;;8.10;5.90;;;24.10;99.90;;;;;;6185840;23;20171;-66
2021/08/10 06:21:12;;;;;;;9.43;6.90;;;24.20;99.90;;;;;;6185599;23;20206;-65
2021/08/10 06:23:39;;;;;;;5.33;4.83;;;24.30;99.90;;;;;;6187020;23;20184;-65
2021/08/10 06:26:05;;;;;;;6.40;5.40;;;24.30;99.90;;;;;;6159722;23;20771;-65
2021/08/10 06:28:31;;;;;;;6.20;5.60;;;24.40;99.90;;;;;;6186454;23;20181;-65
2021/08/10 06:30:56;;;;;;;6.03;5.40;;;24.40;99.90;;;;;;6160573;23;20160;-66
2021/08/10 06:33:22;;;;;;;6.63;5.97;;;24.50;99.90;;;;;;6186774;23;20403;-65
2021/08/10 06:35:48;;;;;;;7.43;5.70;;;24.50;99.90;;;;;;6158692;23;20453;-66
2021/08/10 06:38:13;;;;;;;7.83;5.50;;;24.60;99.90;;;;;;6186021;23;20209;-65
2021/08/10 06:40:39;;;;;;;6.17;4.93;;;24.70;99.90;;;;;;6186865;23;20170;-65
2021/08/10 06:43:05;;;;;;;5.67;5.17;;;24.70;99.90;;;;;;6159841;23;20188;-65
2021/08/10 06:45:30;;;;;;;7.07;5.03;;;24.80;99.90;;;;;;6186340;23;20664;-66
2021/08/10 06:47:56;;;;;;;5.80;5.30;;;24.90;99.90;;;;;;6186639;23;20177;-67
2021/08/10 06:50:22;;;;;;;6.00;5.43;;;24.90;99.90;;;;;;6160581;23;20198;-66
2021/08/10 06:52:47;;;;;;;5.13;4.63;;;25.00;99.90;;;;;;6186701;23;20724;-65
2021/08/10 06:55:14;;;;;;;5.70;5.17;;;25.00;99.90;;;;;;6186553;23;20160;-66
2021/08/10 06:57:40;;;;;;;8.23;5.10;;;25.10;99.90;;;;;;6186626;23;20234;-66
2021/08/10 07:00:07;;;;;;;6.43;5.53;;;25.20;99.90;;;;;;6185402;23;20396;-65
2021/08/10 07:02:33;;;;;;;5.30;4.80;;;25.20;99.90;;;;;;6186211;23;20396;-65
2021/08/10 07:05:00;;;;;;;4.47;4.07;;;25.30;99.90;;;;;;6186641;23;20372;-66
2021/08/10 07:07:26;;;;;;;5.77;4.87;;;25.30;99.90;;;;;;6185214;23;20423;-65
2021/08/10 07:09:51;;;;;;;6.20;4.80;;;25.40;99.90;;;;;;6159698;23;20758;-66
2021/08/10 07:12:17;;;;;;;5.30;4.80;;;25.50;99.90;;;;;;6159893;23;20232;-67
2021/08/10 07:14:43;;;;;;;4.50;4.20;;;25.60;99.90;;;;;;6157999;23;20391;-65
2021/08/10 07:17:08;;;;;;;5.00;4.50;;;25.60;99.90;;;;;;6183836;23;20218;-65
2021/08/10 07:19:34;;;;;;;4.43;4.00;;;25.70;99.90;;;;;;6185144;23;20581;-66
2021/08/10 07:22:00;;;;;;;6.43;4.47;;;25.70;99.90;;;;;;6186393;23;20639;-65
2021/08/10 07:24:26;;;;;;;4.07;3.70;;;25.80;99.90;;;;;;6185795;23;20158;-66
2021/08/10 07:26:52;;;;;;;5.53;4.20;;;25.80;99.90;;;;;;6183946;23;20189;-65
2021/08/10 07:29:18;;;;;;;4.10;3.60;;;25.90;99.90;;;;;;6182441;23;20486;-65
2021/08/10 07:31:44;;;;;;;4.90;4.40;;;26.00;99.90;;;;;;6182138;23;20396;-65
2021/08/10 07:34:10;;;;;;;8.33;3.60;;;26.10;99.90;;;;;;6181412;23;20376;-66
2021/08/10 07:36:35;;;;;;;3.67;3.37;;;26.20;99.90;;;;;;6181056;23;20249;-66
2021/08/10 07:39:01;;;;;;;4.03;3.60;;;26.20;99.90;;;;;;6181600;23;20232;-67
2021/08/10 07:41:27;;;;;;;3.70;3.20;;;26.30;99.90;;;;;;6182994;23;20153;-65
2021/08/10 07:43:53;;;;;;;4.60;4.20;;;26.40;99.90;;;;;;6183910;23;20423;-66
2021/08/10 07:46:18;;;;;;;3.53;3.13;;;26.40;99.90;;;;;;6184755;23;20616;-65
2021/08/10 07:48:44;;;;;;;2.93;2.73;;;26.50;99.90;;;;;;6185722;23;20151;-65
2021/08/10 07:51:09;;;;;;;3.77;3.10;;;26.60;99.90;;;;;;6185471;23;20155;-66
2021/08/10 07:53:36;;;;;;;3.63;3.37;;;26.60;99.90;;;;;;6186073;23;20159;-65
2021/08/10 07:56:02;;;;;;;3.37;3.07;;;26.70;99.90;;;;;;6158582;23;20209;-67
2021/08/10 07:58:28;;;;;;;2.90;2.70;;;26.80;99.90;;;;;;6182955;23;20409;-67
2021/08/10 08:00:53;;;;;;;3.80;3.37;;;26.90;99.90;;;;;;6183263;23;20846;-66
2021/08/10 08:03:19;;;;;;;3.13;2.90;;;27.00;99.90;;;;;;6156817;23;20178;-66
2021/08/10 08:05:44;;;;;;;3.30;2.80;;;27.10;99.90;;;;;;6183549;23;20225;-66
2021/08/10 08:08:10;;;;;;;3.50;2.83;;;27.10;99.90;;;;;;6183738;23;20202;-65
2021/08/10 08:10:36;;;;;;;3.67;3.00;;;27.20;99.90;;;;;;6182855;23;20186;-66
2021/08/10 08:13:01;;;;;;;4.63;3.27;;;27.30;99.90;;;;;;6182393;23;20185;-65
2021/08/10 08:15:27;;;;;;;3.33;2.63;;;27.40;99.90;;;;;;6184796;23;20237;-65
2021/08/10 08:17:52;;;;;;;5.33;3.20;;;27.40;99.90;;;;;;6183687;23;20198;-65
2021/08/10 08:20:18;;;;;;;5.20;3.67;;;27.50;99.90;;;;;;6185556;23;20158;-66
2021/08/10 08:22:47;;;;;;;3.00;2.80;;;27.50;99.90;;;;;;6182887;23;20301;-66
2021/08/10 08:25:13;;;;;;;3.33;2.67;;;27.60;99.90;;;;;;6184929;23;20377;-65
2021/08/10 08:27:39;;;;;;;2.57;2.37;;;27.70;99.90;;;;;;6185154;23;20419;-66
2021/08/10 08:30:06;;;;;;;2.60;2.40;;;27.80;99.90;;;;;;6184755;23;20460;-67
2021/08/10 08:32:32;;;;;;;3.40;2.80;;;27.90;99.90;;;;;;6185225;23;20532;-66
2021/08/10 08:34:57;;;;;;;3.00;2.63;;;28.00;99.90;;;;;;6184702;23;20373;-67
2021/08/10 08:37:23;;;;;;;2.40;2.20;;;28.10;99.90;;;;;;6184517;23;20198;-67
2021/08/10 08:39:48;;;;;;;2.53;2.33;;;28.10;99.90;;;;;;6184827;23;20494;-67
2021/08/10 08:42:14;;;;;;;2.80;2.60;;;28.30;99.90;;;;;;6179653;23;20181;-67
2021/08/10 08:44:40;;;;;;;3.40;2.47;;;28.40;99.90;;;;;;6185249;23;20163;-66
2021/08/10 08:47:08;;;;;;;2.70;2.50;;;28.40;99.90;;;;;;6183821;23;21044;-65
2021/08/10 08:49:36;;;;;;;2.50;2.30;;;28.40;99.90;;;;;;6182915;23;20248;-67
2021/08/10 08:52:05;;;;;;;4.10;2.50;;;28.50;99.90;;;;;;6184518;23;20504;-65
2021/08/10 08:54:34;;;;;;;2.73;2.53;;;28.60;99.90;;;;;;6182107;23;20468;-66
2021/08/10 08:57:00;;;;;;;2.60;2.40;;;28.60;99.90;;;;;;6182738;23;20424;-65
2021/08/10 08:59:26;;;;;;;2.63;2.10;;;28.60;99.90;;;;;;6184458;23;20412;-66
2021/08/10 09:01:52;;;;;;;2.50;2.30;;;28.70;99.90;;;;;;6183282;23;20436;-66
2021/08/10 09:04:19;;;;;;;2.50;2.30;;;28.80;99.90;;;;;;6182032;23;20529;-65
2021/08/10 09:06:45;;;;;;;2.60;2.30;;;28.90;99.90;;;;;;6181919;23;20175;-66
2021/08/10 09:09:30;;;;;;;4.43;2.63;;;29.00;99.90;;;;;;6182781;23;20448;-66
2021/08/10 09:12:07;;;;;;;2.83;2.57;;;29.10;99.90;;;;;;6180748;23;20424;-67
2021/08/10 09:14:47;;;;;;;2.90;2.60;;;29.10;99.90;;;;;;6182429;23;20400;-65
2021/08/10 09:17:16;;;;;;;2.80;2.60;;;29.20;99.90;;;;;;6181249;23;20416;-66
2021/08/10 09:19:44;;;;;;;2.80;2.60;;;29.30;99.90;;;;;;6181842;23;20790;-65
2021/08/10 09:22:26;;;;;;;3.00;2.70;;;29.40;99.90;;;;;;6184505;23;20425;-67
2021/08/10 09:25:03;;;;;;;3.80;2.97;;;29.50;99.90;;;;;;6184656;23;20848;-66
2021/08/10 09:27:37;;;;;;;2.50;2.30;;;29.60;99.90;;;;;;6183360;23;20407;-66
2021/08/10 09:30:08;;;;;;;4.07;2.83;;;29.80;99.90;;;;;;6185369;23;20802;-67
2021/08/10 09:32:53;;;;;;;2.93;2.73;;;29.80;99.90;;;;;;6183923;23;20793;-66
2021/08/10 09:35:23;;;;;;;2.77;2.57;;;29.80;99.90;;;;;;6183147;23;20364;-65
2021/08/10 09:38:04;;;;;;;3.17;2.90;;;29.80;99.90;;;;;;6182957;23;20443;-68
2021/08/10 09:40:32;;;;;;;3.70;3.03;;;29.80;99.90;;;;;;6181693;23;20492;-66
2021/08/10 09:43:28;;;;;;;2.37;2.17;;;29.90;99.90;;;;;;6184335;23;20859;-66
2021/08/10 09:46:21;;;;;;;2.90;2.70;;;29.90;99.90;;;;;;6183344;23;20379;-66
2021/08/10 09:48:49;;;;;;;4.33;2.60;;;29.90;99.90;;;;;;6184473;23;20402;-66
2021/08/10 09:51:22;;;;;;;2.97;2.30;;;29.90;99.90;;;;;;6182987;23;20692;-66
2021/08/10 09:54:14;;;;;;;3.07;2.77;;;30.00;99.90;;;;;;6182555;23;20454;-66
2021/08/10 09:56:53;;;;;;;2.50;2.30;;;29.90;99.90;;;;;;6183059;23;20427;-66
2021/08/10 09:59:23;;;;;;;3.37;3.07;;;29.90;99.90;;;;;;6181035;23;20398;-66
2021/08/10 10:01:59;;;;;;;2.63;2.47;;;29.90;99.90;;;;;;6182320;23;20723;-65
2021/08/10 10:04:29;;;;;;;3.10;2.50;;;30.00;99.90;;;;;;6180658;23;20412;-66
2021/08/10 10:07:08;;;;;;;3.40;3.10;;;30.00;99.90;;;;;;6180831;23;20409;-66
2021/08/10 10:09:34;;;;;;;3.00;2.70;;;30.00;99.90;;;;;;6152833;23;20478;-66
2021/08/10 10:12:01;;;;;;;7.20;2.90;;;30.00;99.80;;;;;;6180840;23;20395;-66
2021/08/10 10:14:28;;;;;;;2.63;2.43;;;30.10;99.90;;;;;;6181377;23;20388;-66
2021/08/10 10:16:54;;;;;;;2.53;2.33;;;30.10;99.20;;;;;;6180490;23;20392;-66
2021/08/10 10:19:21;;;;;;;3.20;2.90;;;30.10;99.70;;;;;;6182559;23;20390;-66
2021/08/10 10:21:48;;;;;;;2.60;2.40;;;30.10;99.30;;;;;;6183703;23;20950;-66
2021/08/10 10:24:16;;;;;;;2.73;2.53;;;30.10;99.80;;;;;;6181704;23;20490;-66
2021/08/10 10:26:47;;;;;;;2.50;2.30;;;30.10;99.90;;;;;;6152602;23;20398;-66
2021/08/10 10:29:15;;;;;;;3.10;2.80;;;30.20;99.90;;;;;;6153979;23;20451;-66
2021/08/10 10:31:41;;;;;;;2.63;2.40;;;30.20;99.40;;;;;;6180991;23;20392;-68
2021/08/10 10:34:09;;;;;;;2.60;2.40;;;30.20;99.90;;;;;;6156008;23;20400;-67
2021/08/10 10:36:35;;;;;;;3.07;2.77;;;30.20;99.90;;;;;;6178296;23;20419;-64
2021/08/10 10:39:01;;;;;;;2.87;2.50;;;30.20;99.70;;;;;;6152210;23;20429;-64
2021/08/10 10:41:32;;;;;;;2.90;2.70;;;30.30;99.50;;;;;;6183337;23;20184;-64
2021/08/10 10:43:58;;;;;;;3.20;2.77;;;30.30;99.20;;;;;;6159390;23;20401;-63
2021/08/10 10:46:36;;;;;;;3.00;2.10;;;30.40;99.60;;;;;;6180094;23;20762;-65
2021/08/10 10:49:07;;;;;;;2.70;2.50;;;30.20;99.90;;;;;;6181658;23;20440;-63
2021/08/10 10:51:38;;;;;;;3.03;2.43;;;30.20;99.90;;;;;;6181427;23;20890;-63
2021/08/10 10:54:27;;;;;;;3.20;2.90;;;30.20;99.90;;;;;;6181540;23;20479;-64
2021/08/10 10:57:03;;;;;;;3.80;2.67;;;30.10;99.90;;;;;;6154502;23;20443;-67
2021/08/10 10:59:38;;;;;;;3.40;2.27;;;30.10;99.90;;;;;;6182379;23;20399;-64
2021/08/10 11:02:13;;;;;;;2.70;2.50;;;30.10;99.90;;;;;;6157576;23;20414;-67
2021/08/10 11:04:59;;;;;;;3.43;2.97;;;30.20;99.90;;;;;;6185145;23;20435;-68
2021/08/10 11:07:40;;;;;;;2.40;2.20;;;30.30;99.90;;;;;;6185797;23;20399;-64
2021/08/10 11:10:25;;;;;;;2.67;2.47;;;30.30;99.90;;;;;;6180711;23;20435;-62
2021/08/10 11:12:51;;;;;;;2.60;2.40;;;30.30;99.90;;;;;;6181687;23;20401;-63
2021/08/10 11:15:45;;;;;;;2.50;2.27;;;30.40;97.10;;;;;;6181539;23;20376;-68
2021/08/10 11:18:11;;;;;;;2.80;2.60;;;30.50;96.50;;;;;;6183861;23;20189;-70
2021/08/10 11:20:38;;;;;;;3.10;2.80;;;30.50;99.10;;;;;;6185377;23;20380;-68
2021/08/10 11:23:20;;;;;;;3.10;2.40;;;30.50;98.90;;;;;;6183813;23;20267;-67
2021/08/10 11:26:11;;;;;;;3.40;2.27;;;30.60;97.40;;;;;;6158979;23;20391;-65
2021/08/10 11:28:43;;;;;;;3.07;2.87;;;30.60;97.60;;;;;;6131146;23;20786;-69
2021/08/10 11:31:10;;;;;;;2.50;2.30;;;30.70;96.50;;;;;;6183894;23;20449;-68
2021/08/10 11:33:42;;;;;;;3.53;2.87;;;30.60;98.70;;;;;;6181114;23;20397;-69
2021/08/10 11:36:16;;;;;;;2.50;2.27;;;30.60;98.90;;;;;;6178910;23;20370;-68
2021/08/10 11:38:48;;;;;;;2.83;2.63;;;30.60;99.00;;;;;;6184986;23;20389;-68
2021/08/10 11:41:14;;;;;;;2.90;2.60;;;30.60;99.00;;;;;;6156288;23;20712;-68
2021/08/10 11:43:49;;;;;;;2.97;2.60;;;30.70;96.50;;;;;;6180015;23;20399;-63
2021/08/10 11:46:20;;;;;;;2.50;2.03;;;30.70;98.40;;;;;;6179568;23;20471;-64
2021/08/10 11:48:48;;;;;;;2.60;2.30;;;30.60;99.10;;;;;;6183770;23;20445;-63
2021/08/10 11:51:18;;;;;;;2.93;2.73;;;30.60;99.40;;;;;;6156067;23;20380;-69
2021/08/10 11:53:43;;;;;;;3.40;3.10;;;30.60;99.50;;;;;;6182357;23;20423;-69
2021/08/10 11:56:34;;;;;;;3.97;2.80;;;30.60;99.40;;;;;;6183945;23;20845;-67
2021/08/10 11:59:01;;;;;;;2.60;2.40;;;30.60;99.50;;;;;;6182447;23;20224;-70
2021/08/10 12:01:30;;;;;;;3.00;2.30;;;30.60;99.60;;;;;;6158214;23;20390;-64
2021/08/10 12:04:10;;;;;;;2.67;2.47;;;30.30;99.80;;;;;;6158212;23;20494;-62
2021/08/10 12:06:36;;;;;;;6.10;3.00;;;30.20;99.90;;;;;;6184248;23;20390;-69
2021/08/10 12:09:19;;;;;;;2.70;2.50;;;30.30;99.80;;;;;;6156488;23;20521;-65
2021/08/10 12:11:51;;;;;;;3.80;3.50;;;30.40;98.90;;;;;;6179826;23;20177;-65
2021/08/10 12:14:21;;;;;;;3.77;3.47;;;30.50;98.70;;;;;;6179089;23;20395;-65
2021/08/10 12:16:59;;;;;;;3.73;2.70;;;30.60;98.50;;;;;;6183123;23;20406;-64
2021/08/10 12:19:51;;;;;;;3.37;3.07;;;30.70;98.10;;;;;;6183253;23;20415;-68
2021/08/10 12:22:20;;;;;;;2.50;2.30;;;30.80;97.70;;;;;;6150998;23;20421;-66
2021/08/10 12:24:46;;;;;;;2.80;2.43;;;30.90;97.30;;;;;;6181586;23;20384;-66
2021/08/10 12:27:14;;;;;;;2.87;2.60;;;31.00;97.00;;;;;;6181194;23;20746;-67
2021/08/10 12:29:45;;;;;;;3.03;2.77;;;31.10;93.60;;;;;;6156901;23;21010;-67
2021/08/10 12:32:20;;;;;;;3.17;2.87;;;31.20;93.80;;;;;;6155964;23;20421;-67
2021/08/10 12:34:46;;;;;;;3.30;2.77;;;31.20;92.70;;;;;;6155716;23;20395;-66
2021/08/10 12:37:11;;;;;;;2.30;2.10;;;31.30;93.80;;;;;;6181564;23;20433;-66
2021/08/10 12:39:49;;;;;;;2.60;2.40;;;31.30;95.10;;;;;;6184878;23;20402;-67
2021/08/10 12:42:15;;;;;;;4.10;2.93;;;31.40;93.00;;;;;;6158921;23;20644;-65
2021/08/10 12:44:41;;;;;;;3.00;2.70;;;31.50;91.80;;;;;;6184570;23;20783;-66
2021/08/10 12:47:09;;;;;;;2.50;2.30;;;31.50;91.00;;;;;;6156714;23;20438;-67
2021/08/10 12:49:42;;;;;;;3.03;2.60;;;31.60;91.60;;;;;;6184102;23;20194;-67
2021/08/10 12:52:17;;;;;;;3.40;3.10;;;31.60;92.70;;;;;;6184653;23;20392;-66
2021/08/10 12:54:45;;;;;;;3.20;2.70;;;31.60;92.40;;;;;;6185597;23;20395;-66
2021/08/10 12:57:21;;;;;;;2.50;2.30;;;31.60;91.80;;;;;;6184458;23;20388;-68